Time;durP1;ratioP1;P1;durP2;ratioP2;P2;SDS_P1;SDS_P2;PMS_P1;PMS_P2;Temp;Humidity;BMP_temperature;BMP_pressure;BME280_temperature;BME280_humidity;BME280_pressure;Samples;Min_cycle;Max_cycle;Signal;HPM_P1;HPM_P2
2022/10/05 00:02:29;;;;;;;24.37;18.27;;;24.40;99.90;;;;;;1875287;75;21095;-84
2022/10/05 00:05:00;;;;;;;25.75;17.67;;;24.40;99.90;;;;;;1865607;75;21117;-83
2022/10/05 00:07:30;;;;;;;26.33;17.55;;;24.50;99.90;;;;;;1875789;75;21116;-85
2022/10/05 00:10:03;;;;;;;25.23;17.62;;;24.60;99.90;;;;;;1852626;76;21137;-84
2022/10/05 00:12:33;;;;;;;27.42;20.40;;;24.60;99.90;;;;;;1858558;76;21181;-84
2022/10/05 00:15:06;;;;;;;34.38;22.90;;;24.60;99.90;;;;;;1865993;76;21257;-84
2022/10/05 00:17:37;;;;;;;30.57;21.68;;;24.70;99.90;;;;;;1854750;75;21660;-84
2022/10/05 00:20:12;;;;;;;29.55;21.25;;;24.80;99.90;;;;;;1857314;76;21225;-85
2022/10/05 00:22:43;;;;;;;33.33;22.25;;;24.80;99.90;;;;;;1862184;76;21221;-84
2022/10/05 00:25:16;;;;;;;29.60;21.95;;;24.80;99.90;;;;;;1867806;76;21130;-84
2022/10/05 00:27:49;;;;;;;26.15;21.80;;;24.90;99.90;;;;;;1867187;76;21193;-84
2022/10/05 00:30:22;;;;;;;29.02;22.15;;;25.00;99.90;;;;;;1853796;76;21134;-83
2022/10/05 00:32:53;;;;;;;31.68;23.22;;;25.00;99.90;;;;;;1870875;76;22044;-84
2022/10/05 00:35:27;;;;;;;26.80;21.42;;;25.10;99.90;;;;;;1856547;76;21089;-84
2022/10/05 00:37:57;;;;;;;27.50;19.85;;;25.10;99.90;;;;;;1856923;76;21136;-84
2022/10/05 00:40:28;;;;;;;28.60;20.62;;;25.20;99.90;;;;;;1868615;76;21101;-84
2022/10/05 00:43:02;;;;;;;23.83;19.25;;;25.20;99.90;;;;;;1862430;76;21203;-85
2022/10/05 00:45:35;;;;;;;23.00;18.77;;;25.30;99.90;;;;;;1864787;76;21099;-87
2022/10/05 00:48:08;;;;;;;24.25;18.60;;;25.30;99.90;;;;;;1871120;76;21164;-85
2022/10/05 00:50:40;;;;;;;19.70;16.90;;;25.30;99.90;;;;;;1870128;76;21260;-85
2022/10/05 00:53:13;;;;;;;19.85;16.35;;;25.40;99.90;;;;;;1864503;76;21931;-85
2022/10/05 00:55:46;;;;;;;20.40;16.67;;;25.40;99.90;;;;;;1863694;76;21268;-85
2022/10/05 00:58:19;;;;;;;17.55;15.43;;;25.50;99.90;;;;;;1863356;76;21235;-87
2022/10/05 01:00:50;;;;;;;21.82;16.00;;;25.50;99.90;;;;;;1816081;77;21175;-86
2022/10/05 01:03:24;;;;;;;20.17;16.50;;;25.50;99.90;;;;;;1817248;77;21147;-73
2022/10/05 01:05:55;;;;;;;21.15;16.32;;;25.60;99.90;;;;;;1887974;74;21210;-74
2022/10/05 01:08:28;;;;;;;24.30;16.12;;;25.70;99.90;;;;;;1888984;75;21640;-72
2022/10/05 01:11:01;;;;;;;22.35;15.13;;;25.70;99.90;;;;;;1893337;74;21174;-75
2022/10/05 01:13:33;;;;;;;18.80;15.68;;;25.70;99.90;;;;;;1885144;74;21126;-73
2022/10/05 01:16:04;;;;;;;17.05;14.60;;;25.80;99.90;;;;;;1883197;76;21114;-75
2022/10/05 01:18:38;;;;;;;18.87;15.23;;;25.90;99.90;;;;;;1868822;75;21182;-76
2022/10/05 01:21:11;;;;;;;18.87;14.83;;;25.90;99.90;;;;;;1894694;74;21129;-74
2022/10/05 01:23:44;;;;;;;16.40;13.20;;;25.90;99.90;;;;;;1892561;74;21150;-75
2022/10/05 01:26:17;;;;;;;16.77;13.65;;;26.00;99.90;;;;;;1892278;74;21614;-74
2022/10/05 01:28:51;;;;;;;16.27;13.80;;;26.00;99.90;;;;;;1890511;74;21191;-74
2022/10/05 01:31:22;;;;;;;20.10;14.40;;;26.10;99.90;;;;;;1902668;74;21170;-75
2022/10/05 01:33:55;;;;;;;21.52;15.08;;;26.20;99.90;;;;;;1897000;74;21095;-75
2022/10/05 01:36:29;;;;;;;19.65;14.00;;;26.20;99.90;;;;;;1894550;74;22003;-75
2022/10/05 01:39:01;;;;;;;16.25;12.58;;;26.30;99.90;;;;;;1885618;74;21201;-76
2022/10/05 01:41:34;;;;;;;16.25;12.85;;;26.30;99.90;;;;;;1881738;74;21192;-76
2022/10/05 01:44:07;;;;;;;13.90;11.40;;;26.30;99.90;;;;;;1899211;74;21215;-74
2022/10/05 01:46:42;;;;;;;14.98;11.63;;;26.40;99.90;;;;;;1880160;74;21067;-75
2022/10/05 01:49:18;;;;;;;13.38;11.08;;;26.40;99.90;;;;;;1910586;74;21740;-74
2022/10/05 01:51:50;;;;;;;11.18;9.80;;;26.50;99.90;;;;;;1893497;74;21554;-74
2022/10/05 01:54:23;;;;;;;12.60;10.35;;;26.50;99.90;;;;;;1897713;74;21629;-74
2022/10/05 01:56:57;;;;;;;10.80;9.60;;;26.60;99.90;;;;;;1892096;74;21126;-72
2022/10/05 01:59:28;;;;;;;11.83;9.58;;;26.70;99.90;;;;;;1899989;74;21179;-74
2022/10/05 02:02:01;;;;;;;11.35;8.53;;;26.70;99.90;;;;;;1895596;74;21091;-74
2022/10/05 02:04:35;;;;;;;9.75;8.28;;;26.80;99.90;;;;;;1883649;74;21589;-74
2022/10/05 02:07:09;;;;;;;11.30;8.45;;;26.90;99.90;;;;;;1885552;74;21168;-74
2022/10/05 02:09:43;;;;;;;10.65;7.55;;;27.00;99.90;;;;;;1879228;74;21511;-73
2022/10/05 02:12:16;;;;;;;8.00;6.60;;;27.00;99.90;;;;;;1893394;74;21581;-73
2022/10/05 02:14:50;;;;;;;9.60;7.30;;;27.20;99.90;;;;;;1892256;74;21116;-73
2022/10/05 02:17:23;;;;;;;10.53;6.03;;;27.20;99.90;;;;;;1890039;74;21663;-73
2022/10/05 02:19:56;;;;;;;9.63;6.70;;;27.40;99.90;;;;;;1893262;74;21066;-74
2022/10/05 02:22:29;;;;;;;8.08;6.45;;;27.40;99.90;;;;;;1899978;74;21664;-74
2022/10/05 02:25:02;;;;;;;9.60;6.65;;;27.50;99.90;;;;;;1886797;74;21185;-74
2022/10/05 02:27:35;;;;;;;7.70;5.72;;;27.60;99.90;;;;;;1905692;74;21126;-72
2022/10/05 02:30:08;;;;;;;8.95;5.65;;;27.70;99.90;;;;;;1891048;74;21164;-72
2022/10/05 02:32:43;;;;;;;7.97;6.37;;;27.70;99.90;;;;;;1903193;74;21207;-72
2022/10/05 02:35:16;;;;;;;7.83;6.17;;;27.80;99.90;;;;;;1894652;74;21129;-73
2022/10/05 02:37:49;;;;;;;7.92;5.75;;;27.80;99.90;;;;;;1887805;74;21157;-73
2022/10/05 02:40:22;;;;;;;9.88;5.95;;;27.90;99.90;;;;;;1882618;74;21138;-73
2022/10/05 02:42:55;;;;;;;9.00;5.87;;;27.90;99.90;;;;;;1889746;74;21653;-73
2022/10/05 02:45:28;;;;;;;7.85;4.90;;;28.00;99.90;;;;;;1887940;74;21118;-72
2022/10/05 02:48:02;;;;;;;9.63;5.25;;;28.00;99.90;;;;;;1884874;74;21077;-73
2022/10/05 02:50:33;;;;;;;6.97;4.78;;;28.20;99.90;;;;;;1881311;74;21150;-73
2022/10/05 02:53:06;;;;;;;8.48;5.25;;;28.20;99.90;;;;;;1885570;74;21859;-74
2022/10/05 02:55:40;;;;;;;5.58;4.42;;;28.30;99.90;;;;;;1884889;74;21143;-74
2022/10/05 02:58:11;;;;;;;6.50;4.37;;;28.30;99.90;;;;;;1887034;74;21681;-73
2022/10/05 03:00:45;;;;;;;7.50;3.98;;;28.40;99.90;;;;;;1887542;74;21663;-74
2022/10/05 03:03:17;;;;;;;4.83;3.80;;;28.50;99.90;;;;;;1874178;74;21728;-73
2022/10/05 03:05:50;;;;;;;5.22;3.47;;;28.50;99.90;;;;;;1872011;76;21594;-73
2022/10/05 03:08:23;;;;;;;4.47;3.08;;;28.60;99.90;;;;;;1878951;74;21082;-74
2022/10/05 03:10:56;;;;;;;5.47;3.42;;;28.60;99.90;;;;;;1881473;75;21101;-75
2022/10/05 03:13:30;;;;;;;6.83;3.60;;;28.60;99.90;;;;;;1883380;75;21168;-73
2022/10/05 03:16:02;;;;;;;5.67;3.95;;;28.60;99.90;;;;;;1865649;76;21199;-73
2022/10/05 03:18:35;;;;;;;5.30;3.62;;;28.70;99.90;;;;;;1882402;75;21052;-74
2022/10/05 03:21:09;;;;;;;4.40;3.30;;;28.80;99.90;;;;;;1874050;75;21200;-73
2022/10/05 03:23:42;;;;;;;6.20;3.77;;;28.80;99.90;;;;;;1890071;75;21216;-73
2022/10/05 03:26:15;;;;;;;6.47;3.65;;;29.00;99.90;;;;;;1875497;75;21699;-74
2022/10/05 03:28:48;;;;;;;5.28;3.40;;;29.10;99.90;;;;;;1881377;75;21172;-73
2022/10/05 03:31:22;;;;;;;8.48;3.83;;;29.10;99.90;;;;;;1878467;75;21150;-73
2022/10/05 03:33:55;;;;;;;7.05;3.72;;;29.30;99.90;;;;;;1869954;75;21166;-74
2022/10/05 03:36:28;;;;;;;4.47;3.80;;;29.40;99.90;;;;;;1863087;75;21189;-73
2022/10/05 03:38:59;;;;;;;6.00;3.72;;;29.50;99.90;;;;;;1867006;75;21561;-73
2022/10/05 03:41:32;;;;;;;5.40;3.35;;;29.60;99.90;;;;;;1867835;75;21712;-73
2022/10/05 03:44:05;;;;;;;5.65;3.22;;;29.70;99.60;;;;;;1867268;75;21119;-74
2022/10/05 03:46:39;;;;;;;5.22;3.22;;;29.70;99.30;;;;;;1874476;75;21150;-74
2022/10/05 03:49:10;;;;;;;7.12;3.58;;;29.80;99.40;;;;;;1864344;76;21099;-73
2022/10/05 03:51:44;;;;;;;6.65;4.28;;;29.80;99.20;;;;;;1864831;75;21691;-74
2022/10/05 03:54:15;;;;;;;5.22;3.37;;;29.70;99.40;;;;;;1888060;75;21193;-73
2022/10/05 03:56:48;;;;;;;9.13;3.60;;;29.70;99.40;;;;;;1879906;75;21267;-73
2022/10/05 03:59:21;;;;;;;4.03;3.00;;;29.80;99.40;;;;;;1885387;75;21086;-74
2022/10/05 04:01:56;;;;;;;4.37;2.98;;;29.80;99.60;;;;;;1883357;75;21106;-73
2022/10/05 04:04:30;;;;;;;4.03;2.80;;;29.90;99.20;;;;;;1868922;75;21736;-73
2022/10/05 04:07:01;;;;;;;6.65;3.22;;;30.00;98.90;;;;;;1887352;75;21244;-73
2022/10/05 04:09:35;;;;;;;3.60;2.77;;;30.10;98.30;;;;;;1870495;75;21152;-74
2022/10/05 04:12:08;;;;;;;4.80;2.80;;;30.20;97.90;;;;;;1889104;74;21099;-74
2022/10/05 04:14:41;;;;;;;3.37;2.70;;;30.40;97.50;;;;;;1887848;74;21527;-74
2022/10/05 04:17:14;;;;;;;5.72;3.15;;;30.30;97.70;;;;;;1884755;74;21060;-74
2022/10/05 04:19:47;;;;;;;3.45;2.70;;;30.20;98.00;;;;;;1878037;74;21149;-73
2022/10/05 04:22:19;;;;;;;5.08;2.98;;;30.20;98.00;;;;;;1880408;74;21598;-74
2022/10/05 04:24:51;;;;;;;4.95;2.80;;;30.30;97.40;;;;;;1887804;74;21628;-74
2022/10/05 04:27:42;;;;;;;5.95;3.00;;;30.30;97.40;;;;;;1889128;74;22025;-73
2022/10/05 04:30:16;;;;;;;6.33;3.08;;;30.40;97.50;;;;;;1752040;81;21844;-74
2022/10/05 04:32:49;;;;;;;4.72;2.80;;;30.30;97.40;;;;;;1748125;81;21317;-74
2022/10/05 04:35:22;;;;;;;4.17;2.92;;;30.20;97.90;;;;;;1746552;81;21279;-72
2022/10/05 04:37:55;;;;;;;5.22;3.15;;;30.30;97.10;;;;;;1745893;81;21233;-74
2022/10/05 04:40:28;;;;;;;4.35;2.62;;;30.30;97.30;;;;;;1743467;81;21659;-75
2022/10/05 04:43:01;;;;;;;4.22;2.80;;;30.40;97.20;;;;;;1744368;81;21220;-74
2022/10/05 04:45:34;;;;;;;3.75;2.55;;;30.40;97.00;;;;;;1721289;82;21836;-75
2022/10/05 04:48:07;;;;;;;3.75;2.70;;;30.50;96.60;;;;;;1743929;81;21149;-75
2022/10/05 04:50:41;;;;;;;4.78;2.87;;;30.50;96.20;;;;;;1744215;81;21649;-74
2022/10/05 04:53:14;;;;;;;4.08;2.85;;;30.50;96.00;;;;;;1748815;81;21161;-74
2022/10/05 04:55:47;;;;;;;3.72;2.65;;;30.60;96.60;;;;;;1740556;81;21126;-75
2022/10/05 04:58:21;;;;;;;4.95;2.85;;;30.70;96.60;;;;;;1737200;81;21707;-75
2022/10/05 05:00:54;;;;;;;4.78;2.52;;;30.70;96.30;;;;;;1743583;81;21165;-76
2022/10/05 05:03:28;;;;;;;4.47;2.80;;;30.80;96.20;;;;;;1751282;81;21255;-76
2022/10/05 05:06:01;;;;;;;4.05;2.70;;;30.80;95.80;;;;;;1732781;81;21666;-75
2022/10/05 05:08:36;;;;;;;5.85;3.10;;;30.80;95.60;;;;;;1745129;80;21208;-76
2022/10/05 05:11:10;;;;;;;4.22;2.92;;;30.70;95.50;;;;;;1742911;81;21268;-76
2022/10/05 05:13:45;;;;;;;3.90;2.87;;;30.50;96.00;;;;;;1740965;81;21302;-75
2022/10/05 05:16:18;;;;;;;4.47;2.70;;;30.40;96.50;;;;;;1740414;82;21190;-75
2022/10/05 05:18:52;;;;;;;6.28;3.12;;;30.30;96.60;;;;;;1740484;81;21621;-75
2022/10/05 05:21:25;;;;;;;5.20;2.67;;;30.20;96.50;;;;;;1743067;81;21213;-75
2022/10/05 05:23:58;;;;;;;4.92;3.50;;;30.20;96.60;;;;;;1742281;82;21645;-75
2022/10/05 05:26:31;;;;;;;5.83;3.30;;;30.20;96.70;;;;;;1742595;82;21531;-75
2022/10/05 05:29:06;;;;;;;6.37;3.12;;;30.10;96.50;;;;;;1741802;81;21126;-75
2022/10/05 05:31:38;;;;;;;4.10;2.52;;;30.10;96.80;;;;;;1733770;81;21127;-75
2022/10/05 05:34:11;;;;;;;6.83;3.02;;;30.20;96.10;;;;;;1734144;81;21332;-75
2022/10/05 05:36:44;;;;;;;6.17;2.58;;;30.20;96.50;;;;;;1724548;83;21554;-75
2022/10/05 05:39:18;;;;;;;6.03;3.30;;;30.20;96.40;;;;;;1725161;81;21220;-75
2022/10/05 05:41:52;;;;;;;5.08;2.87;;;30.20;96.70;;;;;;1732955;82;21713;-75
2022/10/05 05:44:25;;;;;;;4.22;2.75;;;30.20;96.60;;;;;;1734852;82;21197;-75
2022/10/05 05:46:59;;;;;;;4.47;2.77;;;30.10;96.50;;;;;;1725120;81;21831;-74
2022/10/05 05:49:33;;;;;;;3.77;2.60;;;30.10;96.40;;;;;;1733292;81;21140;-74
2022/10/05 05:52:06;;;;;;;5.03;2.55;;;30.00;96.70;;;;;;1731460;81;21209;-74
2022/10/05 05:54:40;;;;;;;6.05;2.58;;;29.90;96.80;;;;;;1732370;81;21650;-74
2022/10/05 05:57:12;;;;;;;3.60;2.47;;;29.90;97.00;;;;;;1729601;81;22467;-75
2022/10/05 05:59:44;;;;;;;4.72;2.77;;;29.90;96.80;;;;;;1743608;81;22109;-74
2022/10/05 06:02:17;;;;;;;4.60;2.65;;;29.90;96.70;;;;;;1726436;82;21641;-73
2022/10/05 06:04:50;;;;;;;4.65;3.00;;;29.90;97.20;;;;;;1732011;81;21215;-73
2022/10/05 06:07:23;;;;;;;3.60;2.58;;;29.90;97.50;;;;;;1727786;81;21702;-73
2022/10/05 06:09:58;;;;;;;6.17;2.37;;;30.00;96.60;;;;;;1720075;81;21182;-74
2022/10/05 06:12:31;;;;;;;5.75;3.33;;;30.10;96.70;;;;;;1729831;82;21653;-73
2022/10/05 06:15:05;;;;;;;5.08;2.47;;;30.20;96.70;;;;;;1730598;81;21854;-73
2022/10/05 06:17:38;;;;;;;5.62;3.25;;;30.20;96.60;;;;;;1734931;81;21173;-74
2022/10/05 06:20:11;;;;;;;5.85;3.17;;;30.20;96.70;;;;;;1728574;81;21619;-74
2022/10/05 06:22:45;;;;;;;4.12;2.70;;;30.30;96.50;;;;;;1731054;81;21627;-73
2022/10/05 06:25:17;;;;;;;5.97;2.70;;;30.40;96.40;;;;;;1725908;81;21189;-73
2022/10/05 06:27:50;;;;;;;4.87;3.27;;;30.50;96.50;;;;;;1726707;81;21182;-73
2022/10/05 06:30:23;;;;;;;3.55;2.40;;;30.50;96.10;;;;;;1752771;81;21749;-73
2022/10/05 06:32:56;;;;;;;4.92;3.02;;;30.50;96.10;;;;;;1736988;81;21258;-74
2022/10/05 06:35:28;;;;;;;5.75;3.58;;;30.60;95.70;;;;;;1730073;82;21232;-74
2022/10/05 06:38:01;;;;;;;3.00;2.70;;;30.60;95.70;;;;;;1744850;81;21653;-74
2022/10/05 06:40:34;;;;;;;4.15;2.60;;;30.60;95.50;;;;;;1735317;81;21159;-74
2022/10/05 06:43:08;;;;;;;9.13;3.05;;;30.60;95.60;;;;;;1731510;82;21734;-74
2022/10/05 06:45:41;;;;;;;4.30;3.40;;;30.70;95.50;;;;;;1743549;80;21215;-74
2022/10/05 06:48:14;;;;;;;4.33;3.00;;;30.70;95.70;;;;;;1735676;80;21664;-73
2022/10/05 06:50:48;;;;;;;4.47;2.70;;;30.60;95.50;;;;;;1730940;82;21626;-73
2022/10/05 06:53:20;;;;;;;5.12;2.80;;;30.60;95.70;;;;;;1745209;81;21194;-73
2022/10/05 06:55:53;;;;;;;5.87;2.87;;;30.60;95.60;;;;;;1734646;82;21671;-73
2022/10/05 06:58:25;;;;;;;5.85;3.17;;;30.60;95.60;;;;;;1730570;81;21202;-73
2022/10/05 07:00:57;;;;;;;4.15;2.77;;;30.60;95.30;;;;;;1729853;82;21713;-73
2022/10/05 07:03:29;;;;;;;3.80;3.00;;;30.70;95.20;;;;;;1740987;82;21566;-73
2022/10/05 07:06:03;;;;;;;3.22;2.85;;;30.70;95.20;;;;;;1731476;83;21607;-73
2022/10/05 07:08:35;;;;;;;4.35;2.80;;;30.70;95.30;;;;;;1727805;81;21594;-73
2022/10/05 07:11:08;;;;;;;6.30;3.30;;;30.60;95.20;;;;;;1752056;81;21713;-73
2022/10/05 07:13:40;;;;;;;3.12;2.55;;;30.60;95.80;;;;;;1730192;82;21231;-73
2022/10/05 07:16:12;;;;;;;4.85;3.02;;;30.60;94.70;;;;;;1728933;81;21765;-74
2022/10/05 07:18:45;;;;;;;4.87;2.98;;;30.50;95.80;;;;;;1738836;81;21553;-74
2022/10/05 07:21:16;;;;;;;5.33;2.72;;;30.60;95.20;;;;;;1735251;81;21190;-74
2022/10/05 07:23:50;;;;;;;2.80;2.20;;;30.60;94.90;;;;;;1742513;81;21602;-73
2022/10/05 07:26:23;;;;;;;3.67;2.98;;;30.60;95.10;;;;;;1736922;81;21313;-74
2022/10/05 07:28:54;;;;;;;4.65;3.10;;;30.60;95.40;;;;;;1752493;81;21224;-73
2022/10/05 07:31:27;;;;;;;3.72;2.92;;;30.70;95.70;;;;;;1727862;82;21147;-74
2022/10/05 07:34:00;;;;;;;4.60;2.67;;;30.70;95.40;;;;;;1721716;83;21634;-74
2022/10/05 07:39:10;;;;;;;4.85;3.22;;;30.80;95.60;;;;;;1741241;81;21546;-74
2022/10/05 07:41:46;;;;;;;4.30;3.20;;;30.90;94.70;;;;;;1747323;81;21678;-74
2022/10/05 07:44:18;;;;;;;3.85;2.92;;;31.00;95.30;;;;;;1733882;80;21611;-75
2022/10/05 07:46:50;;;;;;;3.95;2.83;;;31.00;94.30;;;;;;1731270;81;21630;-74
2022/10/05 07:49:24;;;;;;;4.08;2.62;;;31.00;94.20;;;;;;1747039;81;21630;-74
2022/10/05 07:51:57;;;;;;;6.05;2.45;;;31.00;94.20;;;;;;1746981;80;21063;-74
2022/10/05 07:54:30;;;;;;;3.87;2.50;;;31.00;93.60;;;;;;1739636;82;21205;-73
2022/10/05 07:57:02;;;;;;;3.42;2.47;;;31.00;93.00;;;;;;1732901;83;21127;-74
2022/10/05 07:59:36;;;;;;;3.35;2.33;;;31.00;92.80;;;;;;1730483;81;21288;-73
2022/10/05 08:02:09;;;;;;;3.90;2.58;;;31.00;93.60;;;;;;1734137;81;21277;-73
2022/10/05 08:04:51;;;;;;;4.35;2.75;;;31.00;93.70;;;;;;1761244;81;21103;-73
2022/10/05 08:07:23;;;;;;;4.55;2.50;;;31.00;93.70;;;;;;1746725;80;21131;-73
2022/10/05 08:09:56;;;;;;;3.50;2.47;;;31.00;93.70;;;;;;1736573;81;21650;-73
2022/10/05 08:12:30;;;;;;;3.58;2.55;;;31.00;93.80;;;;;;1746714;81;21175;-74
2022/10/05 08:15:21;;;;;;;5.12;2.55;;;31.00;93.80;;;;;;1746109;81;21246;-73
2022/10/05 08:17:53;;;;;;;4.08;2.70;;;30.90;94.20;;;;;;1867581;76;21597;-73
2022/10/05 08:20:26;;;;;;;4.90;2.67;;;30.90;93.80;;;;;;1843631;76;21110;-74
2022/10/05 08:22:59;;;;;;;3.05;2.45;;;31.00;94.20;;;;;;1808382;78;21677;-75
2022/10/05 08:25:33;;;;;;;4.80;3.30;;;31.00;94.00;;;;;;1812439;77;21645;-75
2022/10/05 08:28:07;;;;;;;2.85;2.60;;;31.00;94.10;;;;;;1818336;78;21088;-72
2022/10/05 08:30:40;;;;;;;4.08;2.62;;;31.00;93.40;;;;;;1825056;77;21170;-73
2022/10/05 08:33:13;;;;;;;6.72;2.80;;;31.00;93.70;;;;;;1806517;78;21192;-74
2022/10/05 08:35:47;;;;;;;4.25;2.65;;;30.90;93.40;;;;;;1804725;78;21163;-74
2022/10/05 08:38:20;;;;;;;4.17;3.30;;;30.90;93.60;;;;;;1793722;78;21162;-73
2022/10/05 08:40:52;;;;;;;4.00;2.77;;;30.90;94.00;;;;;;1809886;78;21751;-73
2022/10/05 08:43:25;;;;;;;4.15;3.00;;;30.90;94.10;;;;;;1829296;76;21202;-72
2022/10/05 08:46:00;;;;;;;4.00;2.80;;;30.80;94.00;;;;;;1823725;75;21159;-73
2022/10/05 08:48:34;;;;;;;3.87;2.30;;;30.80;93.90;;;;;;1800389;79;21178;-73
2022/10/05 08:51:08;;;;;;;4.20;2.40;;;30.80;93.00;;;;;;1828677;77;21682;-73
2022/10/05 08:53:42;;;;;;;5.15;3.08;;;30.80;93.60;;;;;;1838582;77;21748;-73
2022/10/05 08:56:13;;;;;;;4.97;3.00;;;30.80;93.40;;;;;;1807094;78;21178;-73
2022/10/05 08:58:47;;;;;;;3.17;2.50;;;30.80;93.50;;;;;;1828769;77;21098;-73
2022/10/05 09:01:20;;;;;;;5.45;2.60;;;30.80;93.90;;;;;;1785192;78;21176;-73
2022/10/05 09:03:54;;;;;;;4.33;2.85;;;30.80;93.80;;;;;;1777850;80;21151;-73
2022/10/05 09:06:25;;;;;;;2.80;2.33;;;30.80;93.80;;;;;;1799677;79;21187;-74
2022/10/05 09:08:57;;;;;;;3.27;2.60;;;30.70;93.90;;;;;;1795328;79;21112;-73
2022/10/05 09:11:30;;;;;;;4.03;2.50;;;30.70;94.00;;;;;;1806411;78;21277;-73
2022/10/05 09:14:03;;;;;;;4.72;2.58;;;30.60;94.20;;;;;;1799506;78;21240;-73
2022/10/05 09:16:36;;;;;;;4.80;2.40;;;30.60;94.20;;;;;;1804275;77;21200;-73
2022/10/05 09:19:09;;;;;;;5.53;2.60;;;30.60;94.20;;;;;;1800965;78;21174;-73
2022/10/05 09:21:42;;;;;;;4.00;2.70;;;30.60;94.30;;;;;;1786621;78;21273;-73
2022/10/05 09:24:12;;;;;;;4.75;2.87;;;30.50;94.20;;;;;;1804497;78;21133;-73
2022/10/05 09:26:46;;;;;;;5.87;2.65;;;30.50;94.30;;;;;;1794726;78;21170;-73
2022/10/05 09:29:18;;;;;;;3.40;2.40;;;30.50;94.20;;;;;;1795174;78;21122;-74
2022/10/05 09:31:50;;;;;;;5.62;2.85;;;30.50;94.60;;;;;;1802150;78;21622;-73
2022/10/05 09:34:22;;;;;;;5.42;2.70;;;30.50;94.50;;;;;;1796982;79;21170;-73
2022/10/05 09:36:57;;;;;;;3.77;2.02;;;30.40;94.40;;;;;;1815539;78;21571;-72
2022/10/05 09:39:30;;;;;;;3.98;2.72;;;30.50;94.60;;;;;;1829671;78;21596;-73
2022/10/05 09:42:03;;;;;;;4.72;2.85;;;30.40;94.60;;;;;;1822672;78;21196;-73
2022/10/05 09:44:38;;;;;;;5.35;3.00;;;30.40;94.80;;;;;;1800742;78;21158;-73
2022/10/05 09:47:13;;;;;;;7.28;2.83;;;30.30;94.80;;;;;;1796263;80;21253;-73
2022/10/05 09:49:46;;;;;;;5.50;2.77;;;30.30;94.90;;;;;;1797291;78;21256;-74
2022/10/05 09:52:18;;;;;;;3.90;2.75;;;30.30;95.00;;;;;;1813891;78;21092;-75
2022/10/05 09:54:51;;;;;;;5.00;3.35;;;30.30;95.30;;;;;;1816199;78;21175;-74
2022/10/05 09:57:25;;;;;;;3.95;2.60;;;30.30;95.50;;;;;;1788480;80;22105;-74
2022/10/05 09:59:58;;;;;;;4.22;2.87;;;30.20;95.20;;;;;;1792567;79;21717;-74
2022/10/05 10:02:30;;;;;;;4.80;2.87;;;30.20;95.40;;;;;;1810929;78;21901;-73
2022/10/05 10:05:04;;;;;;;4.92;2.90;;;30.10;95.40;;;;;;1822005;77;21786;-73
2022/10/05 10:07:38;;;;;;;3.85;2.72;;;30.10;95.60;;;;;;1825223;77;21602;-75
2022/10/05 10:10:11;;;;;;;3.47;2.80;;;30.10;95.80;;;;;;1819556;78;21664;-73
2022/10/05 10:12:42;;;;;;;3.42;2.83;;;30.00;96.00;;;;;;1827719;78;21647;-74
2022/10/05 10:15:15;;;;;;;5.17;3.02;;;29.90;96.00;;;;;;1829746;78;21125;-75
2022/10/05 10:17:49;;;;;;;6.45;2.92;;;29.90;96.10;;;;;;1822122;78;21639;-73
2022/10/05 10:20:23;;;;;;;5.10;3.05;;;29.80;96.20;;;;;;1804293;78;21203;-74
2022/10/05 10:22:56;;;;;;;4.17;2.85;;;29.80;96.40;;;;;;1813394;78;21644;-73
2022/10/05 10:25:30;;;;;;;3.83;2.90;;;29.70;96.40;;;;;;1799293;77;21086;-73
2022/10/05 10:28:03;;;;;;;4.40;3.10;;;29.70;96.70;;;;;;1823060;78;21215;-73
2022/10/05 10:30:37;;;;;;;5.15;2.98;;;29.70;97.20;;;;;;1820306;77;21184;-73
2022/10/05 10:33:14;;;;;;;5.95;3.35;;;29.50;97.00;;;;;;1814947;78;21155;-73
2022/10/05 10:35:47;;;;;;;4.35;3.08;;;29.50;97.30;;;;;;1818050;78;21178;-74
2022/10/05 10:38:22;;;;;;;6.80;3.50;;;29.50;97.40;;;;;;1831836;77;21580;-74
2022/10/05 10:40:55;;;;;;;5.12;2.95;;;29.50;97.60;;;;;;1831487;77;21627;-73
2022/10/05 10:43:28;;;;;;;5.03;3.17;;;29.50;97.60;;;;;;1825931;77;21115;-73
2022/10/05 10:45:59;;;;;;;4.90;3.00;;;29.40;97.60;;;;;;1848987;76;21572;-73
2022/10/05 10:48:29;;;;;;;4.53;3.40;;;29.50;97.60;;;;;;1841678;76;21183;-73
2022/10/05 10:51:02;;;;;;;5.03;3.47;;;29.40;97.60;;;;;;1834882;77;21120;-75
2022/10/05 10:53:33;;;;;;;5.35;3.62;;;29.40;97.70;;;;;;1799362;79;21136;-74
2022/10/05 10:56:07;;;;;;;4.37;2.87;;;29.40;97.70;;;;;;1807769;78;21172;-73
2022/10/05 10:58:41;;;;;;;6.25;3.72;;;29.30;97.80;;;;;;1827370;77;21212;-74
2022/10/05 11:01:14;;;;;;;7.53;3.83;;;29.30;97.90;;;;;;1829266;77;21086;-74
2022/10/05 11:03:47;;;;;;;5.80;3.60;;;29.30;97.90;;;;;;1796634;78;21591;-75
2022/10/05 11:06:20;;;;;;;5.95;3.70;;;29.30;98.00;;;;;;1820356;78;21096;-75
2022/10/05 11:08:54;;;;;;;7.37;4.70;;;29.30;98.20;;;;;;1808685;78;21623;-74
2022/10/05 11:11:27;;;;;;;13.10;7.85;;;29.20;98.30;;;;;;1828451;78;21259;-75
2022/10/05 11:14:01;;;;;;;7.50;3.77;;;29.30;98.50;;;;;;1850921;76;21188;-74
2022/10/05 11:16:35;;;;;;;5.70;3.72;;;29.20;98.40;;;;;;1845171;78;21138;-74
2022/10/05 11:19:07;;;;;;;6.28;3.75;;;29.20;98.40;;;;;;1839563;77;21695;-74
2022/10/05 11:21:41;;;;;;;6.37;3.65;;;29.20;98.60;;;;;;1833316;78;21700;-72
2022/10/05 11:24:15;;;;;;;6.72;3.92;;;29.10;98.60;;;;;;1836348;77;21551;-74
2022/10/05 11:26:48;;;;;;;6.40;4.47;;;29.10;98.70;;;;;;1827789;77;21216;-75
2022/10/05 11:29:22;;;;;;;9.40;4.05;;;29.10;98.70;;;;;;1818175;78;21734;-75
2022/10/05 11:31:56;;;;;;;8.80;4.37;;;29.10;98.60;;;;;;1829532;78;21119;-75
2022/10/05 11:34:29;;;;;;;7.67;4.37;;;29.10;98.80;;;;;;1835915;77;21546;-75
2022/10/05 11:37:03;;;;;;;8.25;4.30;;;29.10;98.80;;;;;;1837924;77;21582;-75
2022/10/05 11:39:37;;;;;;;6.83;4.15;;;29.10;98.80;;;;;;1841572;77;21645;-75
2022/10/05 11:42:10;;;;;;;7.65;4.30;;;29.10;98.80;;;;;;1828423;78;21597;-75
2022/10/05 11:44:43;;;;;;;7.03;3.95;;;29.10;98.90;;;;;;1816980;77;21098;-75
2022/10/05 11:47:17;;;;;;;5.40;3.90;;;29.10;98.90;;;;;;1820650;77;21240;-74
2022/10/05 11:49:47;;;;;;;6.17;3.27;;;29.00;98.90;;;;;;1847676;76;21559;-75
2022/10/05 11:52:17;;;;;;;6.53;4.28;;;29.00;98.90;;;;;;1847497;77;21142;-74
2022/10/05 11:54:50;;;;;;;9.45;3.67;;;29.00;99.00;;;;;;1792170;78;21155;-74
2022/10/05 11:57:27;;;;;;;5.97;3.50;;;29.00;98.90;;;;;;1796189;76;21179;-75
2022/10/05 11:59:58;;;;;;;6.35;3.42;;;29.00;98.70;;;;;;1801147;79;21068;-74
2022/10/05 12:02:30;;;;;;;6.53;4.10;;;29.00;98.80;;;;;;1832023;77;21678;-75
2022/10/05 12:05:03;;;;;;;10.93;4.92;;;29.00;98.80;;;;;;1790693;78;21581;-75
2022/10/05 12:07:37;;;;;;;6.37;4.00;;;29.00;98.90;;;;;;1813622;78;21647;-73
2022/10/05 12:10:27;;;;;;;6.92;4.28;;;28.90;98.80;;;;;;1806510;78;21619;-75
2022/10/05 12:13:01;;;;;;;8.50;4.17;;;28.90;98.90;;;;;;1834223;77;21238;-74
2022/10/05 12:15:35;;;;;;;8.28;4.45;;;29.00;99.00;;;;;;1831700;77;21743;-73
2022/10/05 12:18:08;;;;;;;7.70;4.00;;;28.90;98.90;;;;;;1822718;78;21155;-74
2022/10/05 12:20:41;;;;;;;11.22;4.08;;;28.90;98.80;;;;;;1822725;78;21118;-74
2022/10/05 12:23:12;;;;;;;5.83;3.60;;;28.90;98.80;;;;;;1826756;77;21604;-74
2022/10/05 12:25:47;;;;;;;5.40;3.58;;;28.90;98.80;;;;;;1828169;78;21594;-74
2022/10/05 12:28:20;;;;;;;6.80;3.60;;;28.80;99.20;;;;;;1809926;78;21157;-75
2022/10/05 12:30:51;;;;;;;7.40;3.70;;;28.90;98.90;;;;;;1830096;77;21224;-74
2022/10/05 12:33:25;;;;;;;6.62;3.67;;;28.80;98.90;;;;;;1826071;77;21092;-74
2022/10/05 12:35:58;;;;;;;5.75;3.80;;;28.90;99.00;;;;;;1830910;77;21832;-74
2022/10/05 12:38:31;;;;;;;6.25;4.10;;;28.80;99.00;;;;;;1769805;79;21245;-74
2022/10/05 12:41:08;;;;;;;10.08;4.60;;;28.80;99.40;;;;;;1798293;78;21113;-74
2022/10/05 12:43:41;;;;;;;9.90;5.00;;;28.80;99.00;;;;;;1793555;78;21718;-74
2022/10/05 12:46:16;;;;;;;8.65;4.50;;;28.80;99.20;;;;;;1870780;76;21141;-73
2022/10/05 12:48:51;;;;;;;11.28;4.85;;;28.80;99.20;;;;;;1844764;76;21197;-74
2022/10/05 12:51:24;;;;;;;9.15;4.60;;;28.80;99.50;;;;;;1848820;76;21088;-73
2022/10/05 12:53:58;;;;;;;10.72;5.20;;;28.80;99.80;;;;;;1846247;76;21244;-74
2022/10/05 12:56:30;;;;;;;8.63;5.10;;;28.70;99.90;;;;;;1843820;76;21237;-74
2022/10/05 12:59:03;;;;;;;5.53;4.17;;;28.70;99.90;;;;;;1875207;76;21592;-74
2022/10/05 13:01:36;;;;;;;8.70;5.00;;;28.70;99.90;;;;;;1847721;76;21090;-74
2022/10/05 13:04:09;;;;;;;7.03;4.10;;;28.70;99.90;;;;;;1845093;77;21159;-76
2022/10/05 13:06:39;;;;;;;7.47;4.03;;;28.60;99.90;;;;;;1841887;76;21171;-75
2022/10/05 13:09:12;;;;;;;9.30;4.35;;;28.60;99.90;;;;;;1860135;76;21218;-89
2022/10/05 13:11:45;;;;;;;8.80;4.28;;;28.60;99.90;;;;;;1852073;76;21152;-87
2022/10/05 13:14:17;;;;;;;9.43;4.25;;;28.60;99.90;;;;;;1861743;77;21096;-89
2022/10/05 13:16:49;;;;;;;7.30;4.67;;;28.60;99.90;;;;;;1866395;76;21625;-88